createdAt,value
2022-09-23T00:01:57.242Z,6.29
2022-09-23T00:04:58.330Z,6.27
2022-09-23T00:07:40.433Z,6.26
2022-09-23T00:10:23.469Z,6.24
2022-09-23T00:13:25.419Z,6.22
2022-09-23T00:16:11.464Z,6.19
2022-09-23T00:18:54.327Z,6.16
2022-09-23T00:22:14.010Z,6.14
2022-09-23T00:24:55.701Z,6.13
2022-09-23T00:27:38.563Z,6.13
2022-09-23T00:30:40.726Z,6.14
2022-09-23T00:33:22.583Z,6.13
2022-09-23T00:36:07.767Z,6.13
2022-09-23T00:39:27.543Z,6.12
2022-09-23T00:42:16.389Z,6.11
2022-09-23T00:45:01.986Z,6.09
2022-09-23T00:48:21.973Z,6.07
2022-09-23T00:51:05.839Z,6.05
2022-09-23T00:53:50.421Z,6.03
2022-09-23T00:56:51.111Z,6.00
2022-09-23T00:59:33.212Z,5.97
2022-09-23T01:02:16.461Z,5.94
2022-09-23T01:05:36.735Z,5.91
2022-09-23T01:08:20.717Z,5.92
2022-09-23T01:11:24.385Z,5.93
2022-09-23T01:14:14.475Z,5.91
2022-09-23T01:17:09.681Z,5.90
2022-09-23T01:20:09.814Z,5.87
2022-09-23T01:23:17.914Z,5.85
2022-09-23T01:30:07.936Z,5.79
2022-09-23T01:33:00.165Z,5.76
2022-09-23T01:36:19.340Z,5.73
2022-09-23T01:39:44.618Z,5.69
2022-09-23T01:42:34.585Z,5.64
2022-09-23T01:45:22.619Z,5.62
2022-09-23T01:48:29.369Z,5.60
2022-09-23T01:51:26.914Z,5.58
2022-09-23T01:54:18.494Z,5.56
2022-09-23T01:57:05.380Z,5.53
2022-09-23T02:00:08.953Z,5.49
2022-09-23T02:03:01.381Z,5.47
2022-09-23T02:05:48.890Z,5.44
2022-09-23T02:08:38.500Z,5.40
2022-09-23T02:11:20.292Z,5.37
2022-09-23T02:14:10.819Z,5.34
2022-09-23T02:16:58.764Z,5.29
2022-09-23T02:19:50.795Z,5.26
2022-09-23T02:22:41.476Z,5.24
2022-09-23T02:25:29.300Z,5.22
2022-09-23T02:28:25.326Z,5.21
2022-09-23T02:31:12.139Z,5.23
2022-09-23T02:34:15.947Z,5.27
2022-09-23T02:37:27.844Z,5.29
2022-09-23T02:40:34.628Z,5.28
2022-09-23T02:43:41.915Z,5.27
2022-09-23T02:46:26.552Z,5.24
2022-09-23T02:49:22.705Z,5.21
2022-09-23T02:52:25.490Z,5.18
2022-09-23T02:55:09.335Z,5.14
2022-09-23T02:57:55.122Z,5.12
2022-09-23T03:01:16.177Z,5.08
2022-09-23T03:12:34.536Z,4.97
2022-09-23T03:15:22.270Z,4.92
2022-09-23T03:18:18.706Z,4.89
2022-09-23T03:21:10.227Z,4.83
2022-09-23T03:23:54.587Z,4.76
2022-09-23T03:26:39.899Z,4.66
2022-09-23T03:29:23.510Z,4.59
2022-09-23T03:32:08.445Z,4.54
2022-09-23T03:34:54.388Z,4.51
2022-09-23T03:37:47.406Z,4.51
2022-09-23T03:40:42.284Z,4.49
2022-09-23T03:43:24.101Z,4.44
2022-09-23T03:46:08.394Z,4.42
2022-09-23T03:48:50.247Z,4.41
2022-09-23T03:52:14.639Z,4.39
2022-09-23T03:59:12.230Z,4.29
2022-09-23T04:01:54.588Z,4.28
2022-09-23T04:08:12.802Z,4.27
2022-09-23T04:11:00.028Z,4.27
2022-09-23T04:14:00.660Z,4.23
2022-09-23T04:16:42.902Z,4.19
2022-09-23T04:19:24.964Z,4.18
2022-09-23T04:22:25.872Z,4.15
2022-09-23T04:25:08.415Z,4.13
2022-09-23T04:27:50.412Z,4.16
2022-09-23T04:31:11.033Z,4.13
2022-09-23T04:33:54.448Z,4.09
2022-09-23T04:36:36.446Z,4.03
2022-09-23T04:39:37.223Z,3.97
2022-09-23T04:42:19.078Z,3.95
2022-09-23T04:45:01.076Z,3.91
2022-09-23T04:48:30.294Z,3.93
2022-09-23T04:51:19.655Z,3.96
2022-09-23T04:54:02.781Z,3.98
2022-09-23T04:56:44.775Z,4.01
2022-09-23T04:59:27.975Z,4.02
2022-09-23T05:02:11.413Z,4.05
2022-09-23T05:04:53.436Z,4.09
2022-09-23T05:07:35.942Z,4.13
2022-09-23T05:10:18.304Z,4.15
2022-09-23T05:13:00.350Z,4.17
2022-09-23T05:15:42.244Z,4.21
2022-09-23T05:18:24.653Z,4.25
2022-09-23T05:21:07.369Z,4.29
2022-09-23T05:23:55.451Z,4.32
2022-09-23T05:26:38.632Z,4.34
2022-09-23T05:29:20.529Z,4.37
2022-09-23T05:32:02.578Z,4.39
2022-09-23T05:34:44.732Z,4.40
2022-09-23T05:37:26.830Z,4.42
2022-09-23T05:40:09.395Z,4.47
2022-09-23T05:42:51.648Z,4.52
2022-09-23T05:45:33.644Z,4.57
2022-09-23T05:48:15.542Z,4.64
2022-09-23T05:50:58.084Z,4.73
2022-09-23T05:53:44.942Z,4.83
2022-09-23T05:56:28.711Z,4.96
2022-09-23T05:59:10.700Z,5.06
2022-09-23T06:01:56.280Z,5.16
2022-09-23T06:04:38.588Z,5.25
2022-09-23T06:07:20.585Z,5.35
2022-09-23T06:10:02.585Z,5.47
2022-09-23T06:12:45.195Z,5.58
2022-09-23T06:15:27.603Z,5.70
2022-09-23T06:18:12.599Z,5.81
2022-09-23T06:20:54.570Z,5.94
2022-09-23T06:23:39.822Z,6.06
2022-09-23T06:26:24.505Z,6.20
2022-09-23T06:29:12.033Z,6.35
2022-09-23T06:31:55.096Z,6.53
2022-09-23T06:34:47.592Z,6.74
2022-09-23T06:37:32.773Z,7.00
2022-09-23T06:40:15.537Z,7.24
2022-09-23T06:42:59.319Z,7.47
2022-09-23T06:45:41.327Z,7.71
2022-09-23T06:48:27.226Z,7.94
2022-09-23T06:51:12.409Z,8.23
2022-09-23T06:53:55.681Z,8.54
2022-09-23T06:56:39.637Z,8.87
2022-09-23T06:59:21.920Z,9.19
2022-09-23T07:02:03.922Z,9.52
2022-09-23T07:04:45.963Z,9.88
2022-09-23T07:07:31.545Z,10.22
2022-09-23T07:10:13.953Z,10.50
2022-09-23T07:12:55.951Z,10.71
2022-09-23T07:15:37.960Z,10.94
2022-09-23T07:18:21.959Z,11.16
2022-09-23T07:21:16.066Z,11.39
2022-09-23T07:23:58.484Z,11.63
2022-09-23T07:26:45.794Z,11.87
2022-09-23T07:29:44.018Z,12.13
2022-09-23T07:32:46.430Z,12.36
2022-09-23T07:35:30.644Z,12.58
2022-09-23T07:38:13.742Z,12.77
2022-09-23T07:41:03.126Z,12.94
2022-09-23T07:43:47.140Z,13.12
2022-09-23T07:46:32.011Z,13.29
2022-09-23T07:49:14.630Z,13.49
2022-09-23T07:51:57.423Z,13.68
2022-09-23T07:54:39.754Z,13.87
2022-09-23T07:57:21.957Z,14.11
2022-09-23T08:00:05.082Z,14.36
2022-09-23T08:02:54.376Z,14.51
2022-09-23T08:05:36.757Z,14.68
2022-09-23T08:08:18.859Z,14.89
2022-09-23T08:11:02.899Z,14.98
2022-09-23T08:13:45.022Z,15.03
2022-09-23T08:16:27.263Z,15.13
2022-09-23T08:19:09.514Z,15.25
2022-09-23T08:21:52.407Z,15.38
2022-09-23T08:24:34.430Z,15.56
2022-09-23T08:27:19.571Z,15.78
2022-09-23T08:30:04.571Z,15.96
2022-09-23T08:32:51.381Z,16.12
2022-09-23T08:35:33.585Z,16.33
2022-09-23T08:38:16.800Z,16.57
2022-09-23T08:41:16.427Z,16.77
2022-09-23T08:44:04.556Z,16.78
2022-09-23T08:46:52.809Z,16.75
2022-09-23T08:49:50.269Z,16.74
2022-09-23T08:52:55.084Z,16.84
2022-09-23T08:55:58.707Z,16.97
2022-09-23T08:59:00.980Z,17.12
2022-09-23T09:02:15.704Z,17.33
2022-09-23T09:05:03.461Z,17.52
2022-09-23T09:07:49.269Z,17.54
2022-09-23T09:10:41.870Z,17.50
2022-09-23T09:13:43.373Z,17.39
2022-09-23T09:17:02.420Z,17.48
2022-09-23T09:19:52.831Z,17.70
2022-09-23T09:22:37.913Z,17.94
2022-09-23T09:25:33.519Z,18.05
2022-09-23T09:28:24.937Z,18.04
2022-09-23T09:31:38.631Z,18.04
2022-09-23T09:34:41.546Z,18.01
2022-09-23T09:37:33.085Z,18.07
2022-09-23T09:40:17.564Z,18.21
2022-09-23T09:43:00.265Z,18.27
2022-09-23T09:46:21.930Z,18.17
2022-09-23T09:49:23.329Z,18.36
2022-09-23T09:52:13.121Z,18.57
2022-09-23T09:54:59.673Z,18.83
2022-09-23T09:58:02.015Z,19.05
2022-09-23T10:00:46.402Z,19.25
2022-09-23T10:03:37.715Z,19.40
2022-09-23T10:06:24.525Z,19.54
2022-09-23T10:09:19.631Z,19.69
2022-09-23T10:12:15.659Z,19.80
2022-09-23T10:14:57.756Z,19.94
2022-09-23T10:17:39.959Z,19.92
2022-09-23T10:20:22.060Z,19.65
2022-09-23T10:23:18.087Z,19.35
2022-09-23T10:26:07.869Z,18.84
2022-09-23T10:28:55.781Z,18.59
2022-09-23T10:31:38.626Z,18.48
2022-09-23T10:34:27.605Z,18.70
2022-09-23T10:37:25.866Z,19.00
2022-09-23T10:40:35.094Z,19.18
2022-09-23T10:44:17.521Z,19.35
2022-09-23T10:47:11.819Z,19.03
2022-09-23T10:50:10.091Z,18.67
2022-09-23T10:53:16.870Z,18.38
2022-09-23T10:56:17.199Z,18.12
2022-09-23T10:59:08.110Z,17.90
2022-09-23T11:02:21.031Z,17.73
2022-09-23T11:05:21.565Z,17.54
2022-09-23T11:08:27.834Z,17.41
2022-09-23T11:11:31.644Z,17.27
2022-09-23T11:14:29.105Z,17.16
2022-09-23T11:17:32.754Z,17.06
2022-09-23T11:20:42.666Z,16.97
2022-09-23T11:23:37.261Z,16.91
2022-09-23T11:26:33.235Z,16.83
2022-09-23T11:29:27.678Z,16.75
2022-09-23T11:32:39.764Z,16.67
2022-09-23T11:35:29.163Z,16.61
2022-09-23T11:38:18.909Z,16.58
2022-09-23T11:41:15.681Z,16.58
2022-09-23T11:44:23.996Z,16.56
2022-09-23T11:47:22.073Z,16.52
2022-09-23T11:50:27.167Z,16.47
2022-09-23T11:53:45.769Z,16.43
2022-09-23T11:56:49.058Z,16.36
2022-09-23T12:03:04.048Z,16.33
2022-09-23T12:05:59.725Z,16.34
2022-09-23T12:08:41.780Z,16.34
2022-09-23T12:11:32.892Z,16.36
2022-09-23T12:14:41.924Z,16.51
2022-09-23T12:17:41.373Z,16.70
2022-09-23T12:20:36.930Z,16.84
2022-09-23T12:23:41.474Z,16.90
2022-09-23T12:26:27.057Z,16.90
2022-09-23T12:29:14.001Z,16.82
2022-09-23T12:31:56.424Z,16.79
2022-09-23T12:34:49.181Z,16.76
2022-09-23T12:37:38.191Z,16.78
2022-09-23T12:40:31.929Z,16.84
2022-09-23T12:43:19.193Z,16.91
2022-09-23T12:46:27.611Z,16.93
2022-09-23T12:49:28.877Z,16.92
2022-09-23T12:52:11.572Z,16.94
2022-09-23T12:55:23.449Z,16.95
2022-09-23T12:58:38.342Z,16.96
2022-09-23T13:01:26.945Z,17.00
2022-09-23T13:04:52.892Z,17.12
2022-09-23T13:07:35.026Z,17.26
2022-09-23T13:10:31.977Z,17.25
2022-09-23T13:13:25.748Z,17.15
2022-09-23T13:16:29.902Z,17.15
2022-09-23T13:19:27.222Z,17.16
2022-09-23T13:22:11.468Z,17.08
2022-09-23T13:24:54.701Z,16.96
2022-09-23T13:27:37.006Z,16.91
2022-09-23T13:30:26.439Z,16.91
2022-09-23T13:33:25.887Z,16.98
2022-09-23T13:36:16.564Z,17.12
2022-09-23T13:39:25.545Z,17.24
2022-09-23T13:42:29.638Z,17.22
2022-09-23T13:45:18.900Z,17.15
2022-09-23T13:48:06.332Z,17.02
2022-09-23T13:50:51.264Z,16.96
2022-09-23T13:53:33.359Z,16.94
2022-09-23T13:56:16.461Z,16.93
2022-09-23T13:59:25.842Z,16.99
2022-09-23T14:02:19.055Z,17.07
2022-09-23T14:05:13.167Z,17.09
2022-09-23T14:07:56.679Z,17.08
2022-09-23T14:10:43.370Z,16.99
2022-09-23T14:13:29.033Z,16.92
2022-09-23T14:16:15.125Z,16.89
2022-09-23T14:19:00.202Z,16.80
2022-09-23T14:21:42.197Z,16.70
2022-09-23T14:24:30.237Z,16.57
2022-09-23T14:27:18.043Z,16.44
2022-09-23T14:30:03.041Z,16.33
2022-09-23T14:32:49.953Z,16.22
2022-09-23T14:35:42.434Z,16.14
2022-09-23T14:38:46.412Z,16.15
2022-09-23T14:41:28.753Z,16.18
2022-09-23T14:44:37.137Z,16.16
2022-09-23T14:47:19.339Z,16.08
2022-09-23T14:50:20.283Z,15.96
2022-09-23T14:53:03.455Z,15.84
2022-09-23T14:55:53.048Z,15.79
2022-09-23T14:58:59.965Z,15.74
2022-09-23T15:01:42.069Z,15.67
2022-09-23T15:04:24.380Z,15.61
2022-09-23T15:07:16.815Z,15.56
2022-09-23T15:10:00.631Z,15.48
2022-09-23T15:12:45.830Z,15.43
2022-09-23T15:15:30.443Z,15.38
2022-09-23T15:18:25.408Z,15.33
2022-09-23T15:21:11.179Z,15.27
2022-09-23T15:23:55.038Z,15.22
2022-09-23T15:26:49.613Z,15.17
2022-09-23T15:29:33.763Z,15.12
2022-09-23T15:32:15.702Z,15.07
2022-09-23T15:34:57.674Z,15.04
2022-09-23T15:37:39.836Z,15.02
2022-09-23T15:40:29.139Z,14.99
2022-09-23T15:43:23.358Z,14.91
2022-09-23T15:46:08.167Z,14.90
2022-09-23T15:48:58.592Z,14.85
2022-09-23T15:51:43.127Z,14.82
2022-09-23T15:54:25.438Z,14.79
2022-09-23T15:57:07.846Z,14.76
2022-09-23T15:59:50.636Z,14.72
2022-09-23T16:02:33.747Z,14.69
2022-09-23T16:05:35.142Z,14.65
2022-09-23T16:08:23.710Z,14.60
2022-09-23T16:11:06.818Z,14.56
2022-09-23T16:13:48.820Z,14.53
2022-09-23T16:16:31.275Z,14.49
2022-09-23T16:19:14.552Z,14.45
2022-09-23T16:21:58.673Z,14.37
2022-09-23T16:24:41.110Z,14.24
2022-09-23T16:27:23.007Z,14.11
2022-09-23T16:30:06.324Z,14.00
2022-09-23T16:32:49.051Z,13.89
2022-09-23T16:35:33.813Z,13.79
2022-09-23T16:38:16.484Z,13.74
2022-09-23T16:41:01.046Z,13.68
2022-09-23T16:43:43.289Z,13.61
2022-09-23T16:46:25.424Z,13.53
2022-09-23T16:49:07.688Z,13.43
2022-09-23T16:51:49.797Z,13.34
2022-09-23T16:54:32.066Z,13.26
2022-09-23T16:57:14.406Z,13.15
2022-09-23T17:00:15.452Z,13.03
2022-09-23T17:03:17.011Z,12.90
2022-09-23T17:06:01.502Z,12.80
2022-09-23T17:08:51.348Z,12.71
2022-09-23T17:11:34.256Z,12.62
2022-09-23T17:14:16.673Z,12.51
2022-09-23T17:16:59.287Z,12.40
2022-09-23T17:19:41.650Z,12.35
2022-09-23T17:22:23.897Z,12.27
2022-09-23T17:25:06.307Z,12.15
2022-09-23T17:27:49.327Z,12.06
2022-09-23T17:30:31.941Z,11.99
2022-09-23T17:33:14.349Z,11.91
2022-09-23T17:35:58.195Z,11.82
2022-09-23T17:38:43.874Z,11.70
2022-09-23T17:41:27.204Z,11.61
2022-09-23T17:44:11.557Z,11.51
2022-09-23T17:46:53.554Z,11.45
2022-09-23T17:49:35.655Z,11.39
2022-09-23T17:52:19.498Z,11.32
2022-09-23T17:55:02.225Z,11.24
2022-09-23T17:57:44.448Z,11.19
2022-09-23T18:00:27.651Z,11.14
2022-09-23T18:03:09.643Z,11.08
2022-09-23T18:05:52.065Z,11.02
2022-09-23T18:08:34.148Z,10.96
2022-09-23T18:11:23.930Z,10.91
2022-09-23T18:14:13.916Z,10.85
2022-09-23T18:16:58.036Z,10.82
2022-09-23T18:19:41.289Z,10.78
2022-09-23T18:22:23.799Z,10.71
2022-09-23T18:25:22.663Z,10.65
2022-09-23T18:28:08.278Z,10.60
2022-09-23T18:30:55.188Z,10.55
2022-09-23T18:33:38.665Z,10.50
2022-09-23T18:36:22.798Z,10.45
2022-09-23T18:39:05.427Z,10.40
2022-09-23T18:41:49.840Z,10.35
2022-09-23T18:44:33.168Z,10.31
2022-09-23T18:47:35.747Z,10.26
2022-09-23T18:50:36.895Z,10.23
2022-09-23T18:53:18.955Z,10.16
2022-09-23T18:56:12.463Z,10.07
2022-09-23T18:58:55.894Z,9.96
2022-09-23T19:01:38.113Z,9.89
2022-09-23T19:04:21.736Z,9.82
2022-09-23T19:07:04.796Z,9.77
2022-09-23T19:09:47.061Z,9.74
2022-09-23T19:12:29.263Z,9.74
2022-09-23T19:15:13.188Z,9.74
2022-09-23T19:17:55.308Z,9.75
2022-09-23T19:20:37.511Z,9.74
2022-09-23T19:23:21.147Z,9.75
2022-09-23T19:26:10.928Z,9.75
2022-09-23T19:28:56.081Z,9.74
2022-09-23T19:31:40.271Z,9.76
2022-09-23T19:34:24.916Z,9.77
2022-09-23T19:37:07.144Z,9.79
2022-09-23T19:39:59.249Z,9.81
2022-09-23T19:42:43.398Z,9.83
2022-09-23T19:45:25.704Z,9.84
2022-09-23T19:48:09.339Z,9.83
2022-09-23T19:50:52.682Z,9.84
2022-09-23T19:53:34.769Z,9.88
2022-09-23T19:56:18.658Z,9.91
2022-09-23T19:59:03.272Z,9.94
2022-09-23T20:01:45.402Z,9.95
2022-09-23T20:04:27.514Z,9.96
2022-09-23T20:07:10.022Z,9.97
2022-09-23T20:09:52.593Z,9.98
2022-09-23T20:12:34.797Z,9.96
2022-09-23T20:15:17.612Z,9.92
2022-09-23T20:17:59.819Z,9.91
2022-09-23T20:20:43.350Z,9.91
2022-09-23T20:23:25.349Z,9.92
2022-09-23T20:26:26.496Z,9.93
2022-09-23T20:29:09.051Z,9.92
2022-09-23T20:31:51.031Z,9.94
2022-09-23T20:34:33.923Z,9.94
2022-09-23T20:37:21.247Z,9.94
2022-09-23T20:40:03.961Z,9.94
2022-09-23T20:42:49.165Z,9.93
2022-09-23T20:45:31.088Z,9.91
2022-09-23T20:48:13.027Z,9.90
2022-09-23T20:51:02.810Z,9.90
2022-09-23T20:53:45.932Z,9.90
2022-09-23T20:56:28.957Z,9.90
2022-09-23T20:59:15.196Z,9.91
2022-09-23T21:01:58.336Z,9.92
2022-09-23T21:04:40.479Z,9.90
2022-09-23T21:07:24.014Z,9.90
2022-09-23T21:10:08.662Z,9.90
2022-09-23T21:12:50.671Z,9.90
2022-09-23T21:15:35.741Z,9.90
2022-09-23T21:18:22.266Z,9.92
2022-09-23T21:21:06.264Z,9.95
2022-09-23T21:23:49.272Z,9.97
2022-09-23T21:26:32.322Z,9.99
2022-09-23T21:29:14.231Z,9.99
2022-09-23T21:31:56.253Z,10.01
2022-09-23T21:34:38.227Z,10.03
2022-09-23T21:37:20.122Z,10.05
2022-09-23T21:40:21.055Z,10.07
2022-09-23T21:43:03.063Z,10.03
2022-09-23T21:45:44.961Z,10.01
2022-09-23T21:48:31.156Z,10.01
2022-09-23T21:51:15.289Z,10.03
2022-09-23T21:53:58.540Z,10.06
2022-09-23T21:56:40.531Z,10.07
2022-09-23T21:59:22.428Z,10.05
2022-09-23T22:02:04.422Z,10.05
2022-09-23T22:04:46.464Z,10.03
2022-09-23T22:07:28.520Z,10.00
2022-09-23T22:10:10.825Z,10.00
2022-09-23T22:12:52.722Z,10.01
2022-09-23T22:15:37.076Z,10.02
2022-09-23T22:18:20.199Z,10.03
2022-09-23T22:21:02.094Z,10.04
2022-09-23T22:23:44.094Z,10.03
2022-09-23T22:26:26.091Z,10.00
2022-09-23T22:29:29.286Z,9.98
2022-09-23T22:32:30.844Z,9.98
2022-09-23T22:35:19.599Z,9.98
2022-09-23T22:38:03.037Z,9.98
2022-09-23T22:40:45.160Z,9.96
2022-09-23T22:43:27.232Z,9.95
2022-09-23T22:46:09.583Z,9.92
2022-09-23T22:48:54.505Z,9.90
2022-09-23T22:51:41.417Z,9.88
2022-09-23T22:54:24.031Z,9.86
2022-09-23T22:57:07.611Z,9.86
2022-09-23T22:59:49.562Z,9.83
2022-09-23T23:02:31.649Z,9.81
2022-09-23T23:05:14.788Z,9.80
2022-09-23T23:07:57.707Z,9.79
2022-09-23T23:10:39.583Z,9.78
2022-09-23T23:13:22.294Z,9.77
2022-09-23T23:16:06.551Z,9.78
2022-09-23T23:18:48.478Z,9.79
2022-09-23T23:21:30.592Z,9.81
2022-09-23T23:24:18.696Z,9.83
2022-09-23T23:27:01.329Z,9.85
2022-09-23T23:29:43.318Z,9.87
2022-09-23T23:32:25.317Z,9.90
2022-09-23T23:35:08.647Z,9.92
2022-09-23T23:37:50.645Z,9.93
2022-09-23T23:40:37.881Z,9.92
2022-09-23T23:43:20.170Z,9.91
2022-09-23T23:46:02.189Z,9.89
2022-09-23T23:48:48.262Z,9.87
2022-09-23T23:51:30.774Z,9.85
2022-09-23T23:54:12.993Z,9.83
2022-09-23T23:56:55.077Z,9.81
2022-09-23T23:59:37.484Z,9.80
